Seadream 1 — C6PW8 — position and weather

sailwx.info

Track history (hours):
 
Tides and Currents Weather Stations Pressure Air Temp Water Temp Dewpoint Dewpoint Depression Visibility Wind Speed Wind Dir Waves Ship Positions

Seadream 1

Last reported at 2016-Jul-27 22:33 UTC. Time now 2016-Jul-27 23:04 UTC.
Position N 43°16' E 010°15'.

Length 105 m; draft 4.3 m.

Type: Ship. MMSI: 308908000.

Date/timePositionNaut miles runAvg speedWind from/ knotsBaromVisibWave heightAir tempDewpointWater temp
2016-Jul-27 22:33N 43°16' E 010°15'8 7.7
2016-Jul-27 21:33N 43°23' E 010°13'5 5.0
2016-Jul-27 20:32N 43°28' E 010°12'4 4.3
2016-Jul-27 19:33N 43°32' E 010°16'2 1.9
2016-Jul-27 18:29N 43°33' E 010°18'0 0.0
2016-Jul-27 17:30N 43°33' E 010°18'0 0.0
2016-Jul-27 16:33N 43°33' E 010°18'0 0.0
2016-Jul-27 15:28N 43°33' E 010°18'0 0.0
2016-Jul-27 14:26N 43°33' E 010°18'0 0.0
2016-Jul-27 13:29N 43°33' E 010°18'0 0.0
2016-Jul-27 12:30N 43°33' E 010°18'0 0.0
2016-Jul-27 11:31N 43°33' E 010°18'0 0.0
2016-Jul-27 10:31N 43°33' E 010°18'0 0.0
2016-Jul-27 09:32N 43°33' E 010°18'0 0.0
2016-Jul-27 08:33N 43°33' E 010°18'0 0.0
2016-Jul-27 07:13N 43°33' E 010°18'0 0.0
2016-Jul-27 06:34N 43°33' E 010°18'0 0.0
2016-Jul-27 05:34N 43°33' E 010°18'0 0.4
2016-Jul-27 04:33N 43°33' E 010°17'7 7.2
2016-Jul-27 03:33N 43°29' E 010°09'5 4.8
2016-Jul-27 02:34N 43°34' E 010°05'6 5.6
2016-Jul-27 01:34N 43°39' E 010°05'5 5.3
2016-Jul-27 00:34N 43°44' E 010°03'6 5.7
2016-Jul-26 23:34N 43°50' E 010°00'6 5.6
2016-Jul-26 22:33N 43°55' E 009°57'6 5.6
2016-Jul-26 21:33N 43°59' E 009°53'4 4.1
2016-Jul-26 20:34N 44°03' E 009°51'0 0.0
2016-Jul-26 19:33N 44°03' E 009°51'0 0.0
2016-Jul-26 18:31N 44°03' E 009°51'0 0.0
2016-Jul-26 17:32N 44°03' E 009°51'0 0.0
2016-Jul-26 16:29N 44°03' E 009°51'0 0.0
2016-Jul-26 15:33N 44°03' E 009°51'0 0.0
2016-Jul-26 14:31N 44°03' E 009°51'0 0.0
2016-Jul-26 13:31N 44°03' E 009°51'0 0.0
2016-Jul-26 12:32N 44°03' E 009°51'0 0.0
2016-Jul-26 11:33N 44°03' E 009°51'0 0.0
2016-Jul-26 10:33N 44°03' E 009°51'0 0.0
2016-Jul-26 09:33N 44°03' E 009°51'0 0.0
2016-Jul-26 08:31N 44°03' E 009°51'0 0.0
2016-Jul-26 07:33N 44°03' E 009°51'0 0.0
2016-Jul-26 06:33N 44°03' E 009°51'0 0.0
2016-Jul-26 05:33N 44°03' E 009°51'2 2.3
2016-Jul-26 04:33N 44°02' E 009°54'3 3.0
2016-Jul-26 03:34N 43°59' E 009°53'5 5.0
2016-Jul-26 02:34N 44°00' E 009°47'5 5.4
2016-Jul-26 01:33N 44°02' E 009°40'5 5.2
2016-Jul-26 00:33N 44°05' E 009°33'5 5.4
2016-Jul-25 23:33N 44°08' E 009°27'6 5.7
2016-Jul-25 22:34N 44°11' E 009°21'5 4.9
2016-Jul-25 21:33N 44°16' E 009°18'2 0.1
2016-Jul-25 05:29N 44°18' E 009°19'7 8.1
2016-Jul-25 04:33N 44°13' E 009°11'10 9.9
2016-Jul-25 03:33N 44°07' E 008°59'1110.8
2016-Jul-25 02:33N 44°01' E 008°47'1110.8
2016-Jul-25 01:33N 43°55' E 008°35'1111.4
2016-Jul-25 00:34N 43°48' E 008°22'1311.8
2016-Jul-24 23:26N 43°40' E 008°07'1012.0
2016-Jul-24 22:34N 43°35' E 007°55'1412.8
2016-Jul-24 21:27N 43°30' E 007°36'1213.0
2016-Jul-24 20:33N 43°27' E 007°21'1312.8
2016-Jul-24 19:33N 43°23' E 007°04'3 0.1
2016-Jul-23 23:16N 43°21' E 007°07'4 5.1
2016-Jul-23 22:34N 43°25' E 007°07'5 4.7
2016-Jul-23 21:33N 43°28' E 007°02'5 4.6
2016-Jul-23 20:33N 43°33' E 007°01'0 0.0
2016-Jul-23 19:33N 43°33' E 007°01'0 0.0
2016-Jul-23 18:33N 43°33' E 007°01'0 0.0
2016-Jul-23 17:22N 43°33' E 007°01'0 0.0
2016-Jul-23 16:32N 43°33' E 007°01'0 0.0
2016-Jul-23 15:32N 43°33' E 007°01'0 0.0
2016-Jul-23 14:30N 43°33' E 007°01'0 0.0
2016-Jul-23 13:31N 43°33' E 007°01'0 0.0
2016-Jul-23 12:25N 43°33' E 007°01'0 0.0
2016-Jul-23 11:32N 43°33' E 007°01'0 0.0
2016-Jul-23 10:33N 43°33' E 007°01'0 0.0
2016-Jul-23 09:33N 43°33' E 007°01'0 0.0
2016-Jul-23 08:31N 43°33' E 007°01'0 0.0
2016-Jul-23 07:28N 43°33' E 007°01'0 0.0
2016-Jul-23 06:28N 43°33' E 007°01'0 0.0
2016-Jul-23 04:33N 43°33' E 007°01'0 0.0
2016-Jul-23 03:33N 43°33' E 007°01'0 0.0
2016-Jul-23 02:31N 43°33' E 007°01'0 0.0
2016-Jul-23 01:32N 43°33' E 007°01'0 0.0
2016-Jul-23 00:32N 43°33' E 007°01'0 0.0
2016-Jul-22 23:33N 43°33' E 007°01'0 0.0
2016-Jul-22 22:31N 43°33' E 007°01'0 0.0
2016-Jul-22 21:31N 43°33' E 007°01'0 0.0
2016-Jul-22 20:26N 43°33' E 007°01'0 0.0
2016-Jul-22 19:33N 43°33' E 007°01'0 0.0
2016-Jul-22 18:33N 43°33' E 007°01'0 0.3
2016-Jul-22 17:30N 43°32' E 007°01'0 0.1
2016-Jul-22 16:28N 43°32' E 007°01'0 0.0
2016-Jul-22 15:32N 43°32' E 007°01'0 0.0
2016-Jul-22 14:32N 43°32' E 007°01'0 0.0
2016-Jul-22 13:33N 43°32' E 007°01'0 0.0
2016-Jul-22 12:33N 43°32' E 007°01'0 0.0
2016-Jul-22 11:31N 43°32' E 007°01'0 0.0
2016-Jul-22 10:29N 43°32' E 007°01'0 0.0
2016-Jul-22 09:27N 43°32' E 007°01'0 0.0
2016-Jul-22 08:28N 43°32' E 007°01'0 0.0
2016-Jul-22 07:26N 43°32' E 007°01'0 0.0
2016-Jul-22 04:33N 43°32' E 007°01'4 4.3
2016-Jul-22 03:34N 43°28' E 007°03'6 6.0
2016-Jul-22 02:33N 43°23' E 007°07'6 5.3
2016-Jul-22 01:31N 43°18' E 007°05'6 5.8
2016-Jul-22 00:33N 43°18' E 006°57'5 5.2
2016-Jul-21 23:33N 43°18' E 006°50'6 5.5
2016-Jul-21 22:32N 43°18' E 006°42'3 2.9
2016-Jul-21 21:33N 43°17' E 006°38'0 0.0
2016-Jul-21 20:31N 43°17' E 006°38'3 0.4
2016-Jul-21 13:25N 43°14' E 006°40'0 0.0
2016-Jul-21 12:22N 43°14' E 006°40'3 4.1
2016-Jul-21 11:33N 43°17' E 006°41'15 1.9
2016-Jul-21 03:33N 43°24' E 007°00'6 5.6
2016-Jul-21 02:33N 43°26' E 007°07'6 5.7
2016-Jul-21 01:33N 43°29' E 007°14'6 5.7
2016-Jul-21 00:31N 43°32' E 007°21'6 6.1
2016-Jul-20 23:32N 43°36' E 007°28'17 5.5
2016-Jul-20 20:26N 43°47' E 007°46'2 1.0
2016-Jul-20 18:32N 43°48' E 007°47'10 9.4
2016-Jul-20 17:32N 43°45' E 007°35'6 4.4
2016-Jul-20 16:08N 43°44' E 007°27'0 0.0
2016-Jul-20 14:33N 43°44' E 007°27'0 0.0
2016-Jul-20 13:16N 43°44' E 007°27'1 0.3
2016-Jul-20 11:24N 43°44' E 007°26'1 1.3
2016-Jul-20 10:33N 43°44' E 007°27'5 4.5
2016-Jul-20 09:33N 43°41' E 007°23'4 4.1
2016-Jul-20 08:33N 43°42' E 007°17'0 0.0
2016-Jul-20 07:05N 43°42' E 007°17'0 0.0
2016-Jul-20 06:30N 43°42' E 007°17'0 0.0
2016-Jul-20 05:33N 43°42' E 007°17'4 4.0
2016-Jul-20 04:33N 43°38' E 007°18'7 6.8
2016-Jul-20 03:33N 43°31' E 007°18'6 6.3
2016-Jul-20 02:33N 43°25' E 007°17'6 6.0
2016-Jul-20 01:33N 43°21' E 007°10'6 5.7
2016-Jul-20 00:33N 43°19' E 007°03'5 5.3
2016-Jul-19 23:33N 43°18' E 006°56'10 5.2
2016-Jul-19 21:32N 43°18' E 006°41'3 0.7
2016-Jul-19 17:16N 43°17' E 006°38'0 0.0
2016-Jul-19 15:05N 43°17' E 006°38'0 0.0
2016-Jul-19 14:25N 43°17' E 006°38'0 0.0
2016-Jul-19 13:32N 43°17' E 006°38'0 0.0
2016-Jul-19 12:29N 43°17' E 006°38'0 0.0
2016-Jul-19 11:33N 43°17' E 006°38'0 0.0
2016-Jul-19 06:33N 43°17' E 006°38'18 8.8
2016-Jul-19 04:31N 43°22' E 007°01'9 9.5
2016-Jul-19 03:33N 43°25' E 007°13'30 9.7
2016-Jul-19 00:29N 43°34' E 007°52'13 9.9
2016-Jul-18 23:13N 43°40' E 008°08'710.6
2016-Jul-18 22:33N 43°44' E 008°16'1212.2
2016-Jul-18 21:33N 43°51' E 008°29'1313.4
2016-Jul-18 20:33N 43°59' E 008°44'1313.0
2016-Jul-18 19:34N 44°07' E 008°59'1312.8
2016-Jul-18 18:33N 44°15' E 009°13'4 3.5
2016-Jul-18 17:32N 44°18' E 009°14'0 0.0
2016-Jul-18 16:33N 44°18' E 009°14'0 0.0
2016-Jul-18 13:25N 44°18' E 009°14'0 0.0
2016-Jul-18 12:32N 44°18' E 009°14'0 0.0
2016-Jul-18 11:15N 44°18' E 009°14'0 0.0
2016-Jul-18 10:33N 44°18' E 009°14'0 0.0
2016-Jul-18 09:13N 44°18' E 009°14'0 0.0
2016-Jul-18 08:26N 44°18' E 009°14'0 0.0
2016-Jul-18 06:09N 44°18' E 009°14'3 3.5
2016-Jul-18 05:26N 44°17' E 009°17'4 4.9
2016-Jul-18 04:33N 44°13' E 009°15'5 5.1
2016-Jul-18 03:34N 44°08' E 009°13'5 5.4
2016-Jul-18 02:33N 44°03' E 009°15'6 5.6
2016-Jul-18 01:33N 43°59' E 009°21'6 5.6
2016-Jul-18 00:34N 43°56' E 009°27'5 5.4
2016-Jul-17 23:34N 43°53' E 009°34'6 5.6
2016-Jul-17 22:34N 43°55' E 009°41'  
Track history (hours):
 
Tides and Currents Weather Stations Pressure Air Temp Water Temp Dewpoint Dewpoint Depression Visibility Wind Speed Wind Dir Waves Ship Positions

Seadream 1

Last reported at 2016-Jul-27 22:33 UTC. Time now 2016-Jul-27 23:04 UTC.
Position N 43°16' E 010°15'.

Length 105 m; draft 4.3 m.

Type: Ship. MMSI: 308908000.

Date/timePositionNaut miles runAvg speedWind from/ knotsBaromVisibWave heightAir tempDewpointWater temp
2016-Jul-27 22:33N 43°16' E 010°15'8 7.7
2016-Jul-27 21:33N 43°23' E 010°13'5 5.0
2016-Jul-27 20:32N 43°28' E 010°12'4 4.3
2016-Jul-27 19:33N 43°32' E 010°16'2 1.9
2016-Jul-27 18:29N 43°33' E 010°18'0 0.0
2016-Jul-27 17:30N 43°33' E 010°18'0 0.0
2016-Jul-27 16:33N 43°33' E 010°18'0 0.0
2016-Jul-27 15:28N 43°33' E 010°18'0 0.0
2016-Jul-27 14:26N 43°33' E 010°18'0 0.0
2016-Jul-27 13:29N 43°33' E 010°18'0 0.0
2016-Jul-27 12:30N 43°33' E 010°18'0 0.0
2016-Jul-27 11:31N 43°33' E 010°18'0 0.0
2016-Jul-27 10:31N 43°33' E 010°18'0 0.0
2016-Jul-27 09:32N 43°33' E 010°18'0 0.0
2016-Jul-27 08:33N 43°33' E 010°18'0 0.0
2016-Jul-27 07:13N 43°33' E 010°18'0 0.0
2016-Jul-27 06:34N 43°33' E 010°18'0 0.0
2016-Jul-27 05:34N 43°33' E 010°18'0 0.4
2016-Jul-27 04:33N 43°33' E 010°17'7 7.2
2016-Jul-27 03:33N 43°29' E 010°09'5 4.8
2016-Jul-27 02:34N 43°34' E 010°05'6 5.6
2016-Jul-27 01:34N 43°39' E 010°05'5 5.3
2016-Jul-27 00:34N 43°44' E 010°03'6 5.7
2016-Jul-26 23:34N 43°50' E 010°00'6 5.6
2016-Jul-26 22:33N 43°55' E 009°57'6 5.6
2016-Jul-26 21:33N 43°59' E 009°53'4 4.1
2016-Jul-26 20:34N 44°03' E 009°51'0 0.0
2016-Jul-26 19:33N 44°03' E 009°51'0 0.0
2016-Jul-26 18:31N 44°03' E 009°51'0 0.0
2016-Jul-26 17:32N 44°03' E 009°51'0 0.0
2016-Jul-26 16:29N 44°03' E 009°51'0 0.0
2016-Jul-26 15:33N 44°03' E 009°51'0 0.0
2016-Jul-26 14:31N 44°03' E 009°51'0 0.0
2016-Jul-26 13:31N 44°03' E 009°51'0 0.0
2016-Jul-26 12:32N 44°03' E 009°51'0 0.0
2016-Jul-26 11:33N 44°03' E 009°51'0 0.0
2016-Jul-26 10:33N 44°03' E 009°51'0 0.0
2016-Jul-26 09:33N 44°03' E 009°51'0 0.0
2016-Jul-26 08:31N 44°03' E 009°51'0 0.0
2016-Jul-26 07:33N 44°03' E 009°51'0 0.0
2016-Jul-26 06:33N 44°03' E 009°51'0 0.0
2016-Jul-26 05:33N 44°03' E 009°51'2 2.3
2016-Jul-26 04:33N 44°02' E 009°54'3 3.0
2016-Jul-26 03:34N 43°59' E 009°53'5 5.0
2016-Jul-26 02:34N 44°00' E 009°47'5 5.4
2016-Jul-26 01:33N 44°02' E 009°40'5 5.2
2016-Jul-26 00:33N 44°05' E 009°33'5 5.4
2016-Jul-25 23:33N 44°08' E 009°27'6 5.7
2016-Jul-25 22:34N 44°11' E 009°21'5 4.9
2016-Jul-25 21:33N 44°16' E 009°18'2 0.1
2016-Jul-25 05:29N 44°18' E 009°19'7 8.1
2016-Jul-25 04:33N 44°13' E 009°11'10 9.9
2016-Jul-25 03:33N 44°07' E 008°59'1110.8
2016-Jul-25 02:33N 44°01' E 008°47'1110.8
2016-Jul-25 01:33N 43°55' E 008°35'1111.4
2016-Jul-25 00:34N 43°48' E 008°22'1311.8
2016-Jul-24 23:26N 43°40' E 008°07'1012.0
2016-Jul-24 22:34N 43°35' E 007°55'1412.8
2016-Jul-24 21:27N 43°30' E 007°36'1213.0
2016-Jul-24 20:33N 43°27' E 007°21'1312.8
2016-Jul-24 19:33N 43°23' E 007°04'3 0.1
2016-Jul-23 23:16N 43°21' E 007°07'4 5.1
2016-Jul-23 22:34N 43°25' E 007°07'5 4.7
2016-Jul-23 21:33N 43°28' E 007°02'5 4.6
2016-Jul-23 20:33N 43°33' E 007°01'0 0.0
2016-Jul-23 19:33N 43°33' E 007°01'0 0.0
2016-Jul-23 18:33N 43°33' E 007°01'0 0.0
2016-Jul-23 17:22N 43°33' E 007°01'0 0.0
2016-Jul-23 16:32N 43°33' E 007°01'0 0.0
2016-Jul-23 15:32N 43°33' E 007°01'0 0.0
2016-Jul-23 14:30N 43°33' E 007°01'0 0.0
2016-Jul-23 13:31N 43°33' E 007°01'0 0.0
2016-Jul-23 12:25N 43°33' E 007°01'0 0.0
2016-Jul-23 11:32N 43°33' E 007°01'0 0.0
2016-Jul-23 10:33N 43°33' E 007°01'0 0.0
2016-Jul-23 09:33N 43°33' E 007°01'0 0.0
2016-Jul-23 08:31N 43°33' E 007°01'0 0.0
2016-Jul-23 07:28N 43°33' E 007°01'0 0.0
2016-Jul-23 06:28N 43°33' E 007°01'0 0.0
2016-Jul-23 04:33N 43°33' E 007°01'0 0.0
2016-Jul-23 03:33N 43°33' E 007°01'0 0.0
2016-Jul-23 02:31N 43°33' E 007°01'0 0.0
2016-Jul-23 01:32N 43°33' E 007°01'0 0.0
2016-Jul-23 00:32N 43°33' E 007°01'0 0.0
2016-Jul-22 23:33N 43°33' E 007°01'0 0.0
2016-Jul-22 22:31N 43°33' E 007°01'0 0.0
2016-Jul-22 21:31N 43°33' E 007°01'0 0.0
2016-Jul-22 20:26N 43°33' E 007°01'0 0.0
2016-Jul-22 19:33N 43°33' E 007°01'0 0.0
2016-Jul-22 18:33N 43°33' E 007°01'0 0.3
2016-Jul-22 17:30N 43°32' E 007°01'0 0.1
2016-Jul-22 16:28N 43°32' E 007°01'0 0.0
2016-Jul-22 15:32N 43°32' E 007°01'0 0.0
2016-Jul-22 14:32N 43°32' E 007°01'0 0.0
2016-Jul-22 13:33N 43°32' E 007°01'0 0.0
2016-Jul-22 12:33N 43°32' E 007°01'0 0.0
2016-Jul-22 11:31N 43°32' E 007°01'0 0.0
2016-Jul-22 10:29N 43°32' E 007°01'0 0.0
2016-Jul-22 09:27N 43°32' E 007°01'0 0.0
2016-Jul-22 08:28N 43°32' E 007°01'0 0.0
2016-Jul-22 07:26N 43°32' E 007°01'0 0.0
2016-Jul-22 04:33N 43°32' E 007°01'4 4.3
2016-Jul-22 03:34N 43°28' E 007°03'6 6.0
2016-Jul-22 02:33N 43°23' E 007°07'6 5.3
2016-Jul-22 01:31N 43°18' E 007°05'6 5.8
2016-Jul-22 00:33N 43°18' E 006°57'5 5.2
2016-Jul-21 23:33N 43°18' E 006°50'6 5.5
2016-Jul-21 22:32N 43°18' E 006°42'3 2.9
2016-Jul-21 21:33N 43°17' E 006°38'0 0.0
2016-Jul-21 20:31N 43°17' E 006°38'3 0.4
2016-Jul-21 13:25N 43°14' E 006°40'0 0.0
2016-Jul-21 12:22N 43°14' E 006°40'3 4.1
2016-Jul-21 11:33N 43°17' E 006°41'15 1.9
2016-Jul-21 03:33N 43°24' E 007°00'6 5.6
2016-Jul-21 02:33N 43°26' E 007°07'6 5.7
2016-Jul-21 01:33N 43°29' E 007°14'6 5.7
2016-Jul-21 00:31N 43°32' E 007°21'6 6.1
2016-Jul-20 23:32N 43°36' E 007°28'17 5.5
2016-Jul-20 20:26N 43°47' E 007°46'2 1.0
2016-Jul-20 18:32N 43°48' E 007°47'10 9.4
2016-Jul-20 17:32N 43°45' E 007°35'6 4.4
2016-Jul-20 16:08N 43°44' E 007°27'0 0.0
2016-Jul-20 14:33N 43°44' E 007°27'0 0.0
2016-Jul-20 13:16N 43°44' E 007°27'1 0.3
2016-Jul-20 11:24N 43°44' E 007°26'1 1.3
2016-Jul-20 10:33N 43°44' E 007°27'5 4.5
2016-Jul-20 09:33N 43°41' E 007°23'4 4.1
2016-Jul-20 08:33N 43°42' E 007°17'0 0.0
2016-Jul-20 07:05N 43°42' E 007°17'0 0.0
2016-Jul-20 06:30N 43°42' E 007°17'0 0.0
2016-Jul-20 05:33N 43°42' E 007°17'4 4.0
2016-Jul-20 04:33N 43°38' E 007°18'7 6.8
2016-Jul-20 03:33N 43°31' E 007°18'6 6.3
2016-Jul-20 02:33N 43°25' E 007°17'6 6.0
2016-Jul-20 01:33N 43°21' E 007°10'6 5.7
2016-Jul-20 00:33N 43°19' E 007°03'5 5.3
2016-Jul-19 23:33N 43°18' E 006°56'10 5.2
2016-Jul-19 21:32N 43°18' E 006°41'3 0.7
2016-Jul-19 17:16N 43°17' E 006°38'0 0.0
2016-Jul-19 15:05N 43°17' E 006°38'0 0.0
2016-Jul-19 14:25N 43°17' E 006°38'0 0.0
2016-Jul-19 13:32N 43°17' E 006°38'0 0.0
2016-Jul-19 12:29N 43°17' E 006°38'0 0.0
2016-Jul-19 11:33N 43°17' E 006°38'0 0.0
2016-Jul-19 06:33N 43°17' E 006°38'18 8.8
2016-Jul-19 04:31N 43°22' E 007°01'9 9.5
2016-Jul-19 03:33N 43°25' E 007°13'30 9.7
2016-Jul-19 00:29N 43°34' E 007°52'13 9.9
2016-Jul-18 23:13N 43°40' E 008°08'710.6
2016-Jul-18 22:33N 43°44' E 008°16'1212.2
2016-Jul-18 21:33N 43°51' E 008°29'1313.4
2016-Jul-18 20:33N 43°59' E 008°44'1313.0
2016-Jul-18 19:34N 44°07' E 008°59'1312.8
2016-Jul-18 18:33N 44°15' E 009°13'4 3.5
2016-Jul-18 17:32N 44°18' E 009°14'0 0.0
2016-Jul-18 16:33N 44°18' E 009°14'0 0.0
2016-Jul-18 13:25N 44°18' E 009°14'0 0.0
2016-Jul-18 12:32N 44°18' E 009°14'0 0.0
2016-Jul-18 11:15N 44°18' E 009°14'0 0.0
2016-Jul-18 10:33N 44°18' E 009°14'0 0.0
2016-Jul-18 09:13N 44°18' E 009°14'0 0.0
2016-Jul-18 08:26N 44°18' E 009°14'0 0.0
2016-Jul-18 06:09N 44°18' E 009°14'3 3.5
2016-Jul-18 05:26N 44°17' E 009°17'4 4.9
2016-Jul-18 04:33N 44°13' E 009°15'5 5.1
2016-Jul-18 03:34N 44°08' E 009°13'5 5.4
2016-Jul-18 02:33N 44°03' E 009°15'6 5.6
2016-Jul-18 01:33N 43°59' E 009°21'6 5.6
2016-Jul-18 00:34N 43°56' E 009°27'5 5.4
2016-Jul-17 23:34N 43°53' E 009°34'6 5.6
2016-Jul-17 22:34N 43°55' E 009°41'  

Dump ship's entire track history